Time;durP1;ratioP1;P1;durP2;ratioP2;P2;SDS_P1;SDS_P2;PMS_P1;PMS_P2;Temp;Humidity;BMP_temperature;BMP_pressure;BME280_temperature;BME280_humidity;BME280_pressure;Samples;Min_cycle;Max_cycle;Signal;HPM_P1;HPM_P2
2023/07/18 03:30:19;;;;;;;;;;;16.70;71.90;;;;;;6324931;22;19980;-72
2023/07/18 03:32:46;;;;;;;;;;;16.80;71.60;;;;;;6279726;22;19907;-72
2023/07/18 03:35:14;;;;;;;;;;;16.80;71.50;;;;;;6306728;22;20407;-72
2023/07/18 03:37:40;;;;;;;;;;;16.80;71.00;;;;;;6306755;22;19903;-72
2023/07/18 03:40:09;;;;;;;;;;;16.80;70.90;;;;;;6279397;22;19949;-72
2023/07/18 03:42:36;;;;;;;;;;;16.80;70.00;;;;;;6306925;22;19907;-72
2023/07/18 03:45:04;;;;;;;;;;;16.90;69.70;;;;;;6279684;22;20223;-72
2023/07/18 03:47:31;;;;;;;;;;;16.90;69.40;;;;;;6306501;22;19910;-72
2023/07/18 03:49:58;;;;;;;;;;;17.00;69.10;;;;;;6306644;22;20277;-72
2023/07/18 03:52:25;;;;;;;;;;;17.00;68.90;;;;;;6306387;22;19983;-72
2023/07/18 03:54:51;;;;;;;;;;;17.00;68.70;;;;;;6306583;22;19992;-72
2023/07/18 03:57:18;;;;;;;;;;;17.00;68.90;;;;;;6306762;22;20237;-72
2023/07/18 03:59:45;;;;;;;;;;;17.10;68.60;;;;;;6306731;22;19913;-72
2023/07/18 04:02:14;;;;;;;;;;;17.10;68.40;;;;;;6279402;22;19907;-72
2023/07/18 04:04:44;;;;;;;;;;;17.10;68.40;;;;;;6306641;22;19907;-72
2023/07/18 04:07:10;;;;;;;;;;;17.20;68.40;;;;;;6307695;22;19907;-72
2023/07/18 04:09:37;;;;;;;;;;;17.20;67.10;;;;;;6281502;22;19949;-72
2023/07/18 04:12:05;;;;;;;;;;;17.20;65.90;;;;;;6308473;22;19910;-72
2023/07/18 04:14:32;;;;;;;;;;;17.10;66.00;;;;;;6308120;22;19910;-72
2023/07/18 04:16:58;;;;;;;;;;;17.20;66.00;;;;;;6308067;22;19923;-72
2023/07/18 04:19:25;;;;;;;;;;;17.20;66.10;;;;;;6308158;22;19910;-72
2023/07/18 04:21:52;;;;;;;;;;;17.30;66.60;;;;;;6308613;22;20104;-72
2023/07/18 04:24:20;;;;;;;;;;;17.30;66.40;;;;;;6307517;22;20329;-72
2023/07/18 04:26:47;;;;;;;;;;;17.30;64.90;;;;;;6308910;22;19914;-72
2023/07/18 04:29:14;;;;;;;;;;;17.30;63.80;;;;;;6308057;22;19907;-72
2023/07/18 04:31:40;;;;;;;;;;;17.30;63.20;;;;;;6308042;22;20322;-72
2023/07/18 04:34:07;;;;;;;;;;;17.30;63.00;;;;;;6308152;22;19903;-72
2023/07/18 04:36:34;;;;;;;;;;;17.40;63.00;;;;;;6308336;22;19973;-72
2023/07/18 04:39:00;;;;;;;;;;;17.30;62.20;;;;;;6308539;22;20345;-72
2023/07/18 04:41:27;;;;;;;;;;;17.30;61.70;;;;;;6307711;22;19910;-72
2023/07/18 04:43:54;;;;;;;;;;;17.30;61.60;;;;;;6307887;22;20352;-72
2023/07/18 04:46:21;;;;;;;;;;;17.40;61.70;;;;;;6307919;22;19911;-72
2023/07/18 04:48:47;;;;;;;;;;;17.40;61.40;;;;;;6307655;22;19903;-72
2023/07/18 04:51:16;;;;;;;;;;;17.50;60.40;;;;;;6307693;22;19903;-71
2023/07/18 04:53:43;;;;;;;;;;;17.50;59.70;;;;;;6308013;22;20330;-72
2023/07/18 04:56:10;;;;;;;;;;;17.50;59.10;;;;;;6308204;22;19903;-72
2023/07/18 04:58:36;;;;;;;;;;;17.50;58.30;;;;;;6307929;22;20003;-72
2023/07/18 05:01:03;;;;;;;;;;;17.50;57.30;;;;;;6308004;22;20318;-72
2023/07/18 05:03:30;;;;;;;;;;;17.50;56.40;;;;;;6307892;22;19903;-72
2023/07/18 05:05:57;;;;;;;;;;;17.50;55.80;;;;;;6307284;22;19911;-71
2023/07/18 05:08:24;;;;;;;;;;;17.50;55.70;;;;;;6307591;22;20908;-72
2023/07/18 05:10:50;;;;;;;;;;;17.50;55.00;;;;;;6307852;22;19909;-71
2023/07/18 05:13:17;;;;;;;;;;;17.50;54.60;;;;;;6307918;22;19903;-71
2023/07/18 05:15:44;;;;;;;;;;;17.50;55.00;;;;;;6280830;22;20276;-72
2023/07/18 05:18:11;;;;;;;;;;;17.50;53.30;;;;;;6306710;22;19909;-71
2023/07/18 05:20:37;;;;;;;;;;;17.60;50.60;;;;;;6307714;22;19914;-72
2023/07/18 05:23:04;;;;;;;;;;;17.70;49.70;;;;;;6307680;22;19903;-71
2023/07/18 05:25:31;;;;;;;;;;;17.70;48.30;;;;;;6307982;22;19964;-71
2023/07/18 05:27:58;;;;;;;;;;;17.60;44.40;;;;;;6307811;22;19910;-71
2023/07/18 05:30:25;;;;;;;;;;;17.70;42.70;;;;;;6279973;22;19915;-71
2023/07/18 05:32:54;;;;;;;;;;;17.70;43.40;;;;;;6307888;22;19964;-71
2023/07/18 05:35:21;;;;;;;;;;;17.70;42.70;;;;;;6307656;22;19903;-71
2023/07/18 05:37:48;;;;;;;;;;;17.70;42.40;;;;;;6307876;22;19903;-71
2023/07/18 05:40:15;;;;;;;;;;;17.70;43.00;;;;;;6307573;22;20043;-72
2023/07/18 05:42:42;;;;;;;;;;;17.70;44.00;;;;;;6307303;22;19899;-71
2023/07/18 05:45:09;;;;;;;;;;;17.70;43.50;;;;;;6280112;22;19918;-71
2023/07/18 05:47:36;;;;;;;;;;;17.70;42.60;;;;;;6307426;22;19911;-71
2023/07/18 05:50:03;;;;;;;;;;;17.70;41.60;;;;;;6307613;22;19903;-72
2023/07/18 05:52:29;;;;;;;;;;;17.70;41.20;;;;;;6280207;22;19907;-72
2023/07/18 05:54:56;;;;;;;;;;;17.70;40.80;;;;;;6307084;22;19903;-71
2023/07/18 05:57:23;;;;;;;;;;;17.70;40.50;;;;;;6307192;22;19903;-71
2023/07/18 05:59:50;;;;;;;;;;;17.70;40.10;;;;;;6307224;22;19934;-71
2023/07/18 06:02:16;;;;;;;;;;;17.80;40.20;;;;;;6307358;22;19907;-71
2023/07/18 06:04:43;;;;;;;;;;;17.80;40.30;;;;;;6307039;22;19907;-71
2023/07/18 06:07:11;;;;;;;;;;;17.80;40.50;;;;;;6307217;22;19931;-71
2023/07/18 06:09:38;;;;;;;;;;;17.80;40.40;;;;;;6307519;22;19903;-72
2023/07/18 06:12:06;;;;;;;;;;;17.80;40.70;;;;;;6306192;22;19938;-73
2023/07/18 06:14:33;;;;;;;;;;;17.90;40.80;;;;;;6307840;22;19911;-71
2023/07/18 06:17:00;;;;;;;;;;;17.90;40.50;;;;;;6280351;22;19989;-71
2023/07/18 06:19:26;;;;;;;;;;;17.90;40.20;;;;;;6307050;22;19903;-71
2023/07/18 06:21:53;;;;;;;;;;;17.80;40.30;;;;;;6306849;22;20242;-71
2023/07/18 06:24:20;;;;;;;;;;;17.80;40.40;;;;;;6306972;22;19911;-72
2023/07/18 06:26:50;;;;;;;;;;;17.80;40.60;;;;;;6306260;22;19906;-70
2023/07/18 06:29:17;;;;;;;;;;;17.80;40.60;;;;;;6279195;22;19985;-71
2023/07/18 06:31:47;;;;;;;;;;;17.80;40.70;;;;;;6279741;22;19907;-73
2023/07/18 06:34:15;;;;;;;;;;;17.80;41.30;;;;;;6303458;22;19914;-75
2023/07/18 06:36:41;;;;;;;;;;;17.80;42.10;;;;;;6303942;22;19914;-76
2023/07/18 06:39:08;;;;;;;;;;;17.80;42.90;;;;;;6303574;22;20068;-75
2023/07/18 06:41:35;;;;;;;;;;;17.80;43.00;;;;;;6303751;22;19920;-75
2023/07/18 06:44:04;;;;;;;;;;;17.70;43.00;;;;;;6303651;22;19906;-75
2023/07/18 06:46:31;;;;;;;;;;;17.70;43.20;;;;;;6276706;22;19942;-76
2023/07/18 06:48:57;;;;;;;;;;;17.80;43.30;;;;;;6303266;22;19977;-73
2023/07/18 06:51:24;;;;;;;;;;;17.70;43.50;;;;;;6301067;22;19942;-72
2023/07/18 06:53:52;;;;;;;;;;;17.70;43.30;;;;;;6276388;22;19907;-72
2023/07/18 06:56:18;;;;;;;;;;;17.70;43.50;;;;;;6303554;22;19929;-71
2023/07/18 06:58:45;;;;;;;;;;;17.60;43.30;;;;;;6302857;22;19907;-72
2023/07/18 07:01:12;;;;;;;;;;;17.60;43.40;;;;;;6303237;22;19981;-73
2023/07/18 07:03:39;;;;;;;;;;;17.60;43.40;;;;;;6276478;22;20245;-72
2023/07/18 07:06:12;;;;;;;;;;;17.60;43.30;;;;;;6302581;22;19914;-72
2023/07/18 07:08:38;;;;;;;;;;;17.50;43.30;;;;;;6303024;22;19980;-72
2023/07/18 07:11:06;;;;;;;;;;;17.50;43.20;;;;;;6302770;22;20282;-75
2023/07/18 07:13:34;;;;;;;;;;;17.50;43.30;;;;;;6303360;22;19906;-72
2023/07/18 07:16:00;;;;;;;;;;;17.50;43.10;;;;;;6303425;22;19903;-72
2023/07/18 07:18:27;;;;;;;;;;;17.40;43.20;;;;;;6303185;22;19903;-73
2023/07/18 07:20:54;;;;;;;;;;;17.40;43.00;;;;;;6303064;22;19981;-72
2023/07/18 07:23:21;;;;;;;;;;;17.40;42.90;;;;;;6303412;22;19977;-73
2023/07/18 07:25:48;;;;;;;;;;;17.40;42.80;;;;;;6303097;22;19957;-73
2023/07/18 07:28:14;;;;;;;;;;;17.30;42.90;;;;;;6303025;22;19941;-73
2023/07/18 07:30:41;;;;;;;;;;;17.30;43.00;;;;;;6302044;22;19918;-73
2023/07/18 07:33:08;;;;;;;;;;;17.30;42.90;;;;;;6301669;22;20238;-72
2023/07/18 07:35:35;;;;;;;;;;;17.30;43.00;;;;;;6301850;22;19968;-73
2023/07/18 07:38:02;;;;;;;;;;;17.30;43.20;;;;;;6302212;22;19914;-73
2023/07/18 07:40:29;;;;;;;;;;;17.20;43.40;;;;;;6299294;22;19918;-76
2023/07/18 07:42:56;;;;;;;;;;;17.20;43.60;;;;;;6302609;22;19934;-73
2023/07/18 07:45:23;;;;;;;;;;;17.20;43.60;;;;;;6302406;22;20264;-74
2023/07/18 07:47:50;;;;;;;;;;;17.20;43.60;;;;;;6303269;22;19917;-74
2023/07/18 07:50:16;;;;;;;;;;;17.20;43.60;;;;;;6299562;22;19903;-74
2023/07/18 07:52:43;;;;;;;;;;;17.10;43.60;;;;;;6302419;22;19907;-77
2023/07/18 07:55:11;;;;;;;;;;;17.10;43.70;;;;;;6299971;22;19907;-77
2023/07/18 07:57:38;;;;;;;;;;;17.10;43.80;;;;;;6302137;22;20231;-76
2023/07/18 08:00:07;;;;;;;;;;;17.10;43.90;;;;;;6300782;22;20278;-77
2023/07/18 08:02:34;;;;;;;;;;;17.00;43.80;;;;;;6302329;22;19903;-77
2023/07/18 08:05:00;;;;;;;;;;;17.00;44.10;;;;;;6302266;22;19915;-77
2023/07/18 08:07:27;;;;;;;;;;;16.90;44.10;;;;;;6302988;22;19953;-74
2023/07/18 08:09:54;;;;;;;;;;;16.90;44.30;;;;;;6301852;22;19929;-77
2023/07/18 08:12:22;;;;;;;;;;;16.80;44.40;;;;;;6302473;22;19938;-76
2023/07/18 08:14:48;;;;;;;;;;;16.80;44.80;;;;;;6301886;22;20393;-76
2023/07/18 08:17:16;;;;;;;;;;;16.70;45.00;;;;;;6302464;22;20292;-76
2023/07/18 08:19:43;;;;;;;;;;;16.70;45.00;;;;;;6301927;22;20356;-77
2023/07/18 08:22:10;;;;;;;;;;;16.60;45.30;;;;;;6300743;22;19907;-77
2023/07/18 08:24:36;;;;;;;;;;;16.50;45.30;;;;;;6302207;22;19956;-77
2023/07/18 08:27:03;;;;;;;;;;;16.50;45.30;;;;;;6302949;22;20024;-74
2023/07/18 08:31:48;;;;;;;;;;;16.50;45.00;;;;;;5049509;28;19928;-75
2023/07/18 08:34:16;;;;;;;;;;;16.50;45.30;;;;;;5046455;28;19924;-74
2023/07/18 08:36:43;;;;;;;;;;;16.50;45.10;;;;;;5046974;28;19916;-75
2023/07/18 08:39:09;;;;;;;;;;;16.50;44.50;;;;;;5045660;28;19913;-73
2023/07/18 08:41:36;;;;;;;;;;;16.50;44.20;;;;;;5043676;28;19921;-74
2023/07/18 08:44:03;;;;;;;;;;;16.50;44.10;;;;;;5045919;28;19913;-74
2023/07/18 08:46:30;;;;;;;;;;;16.40;44.40;;;;;;5045490;28;19909;-76
2023/07/18 08:48:56;;;;;;;;;;;16.40;44.90;;;;;;5046813;28;19917;-73
2023/07/18 08:51:23;;;;;;;;;;;16.30;45.30;;;;;;5043021;28;20279;-74
2023/07/18 08:53:50;;;;;;;;;;;16.30;46.00;;;;;;5042889;28;19913;-73
2023/07/18 08:56:16;;;;;;;;;;;16.30;45.80;;;;;;5046486;28;19917;-74
2023/07/18 08:58:43;;;;;;;;;;;16.30;46.00;;;;;;5045194;28;19913;-75
2023/07/18 09:01:10;;;;;;;;;;;16.20;46.10;;;;;;5045236;28;19925;-75
2023/07/18 09:03:37;;;;;;;;;;;16.20;46.80;;;;;;5044301;28;19923;-76
2023/07/18 09:06:04;;;;;;;;;;;16.20;46.80;;;;;;5046529;28;19913;-72
2023/07/18 09:08:43;;;;;;;;;;;16.20;47.20;;;;;;5046275;28;19928;-72
2023/07/18 09:11:14;;;;;;;;;;;16.20;48.40;;;;;;5033315;28;19971;-71
2023/07/18 09:13:41;;;;;;;;;;;16.10;48.30;;;;;;5046331;28;19967;-72
2023/07/18 09:16:17;;;;;;;;;;;16.10;48.70;;;;;;5043424;28;19919;-71
2023/07/18 09:18:53;;;;;;;;;;;16.10;48.20;;;;;;5034076;28;20035;-74
2023/07/18 09:21:20;;;;;;;;;;;16.00;48.40;;;;;;5045859;28;19947;-73
2023/07/18 09:23:47;;;;;;;;;;;16.00;49.80;;;;;;5044945;28;19952;-71
2023/07/18 09:26:14;;;;;;;;;;;16.00;49.60;;;;;;5043748;28;19913;-70
2023/07/18 09:28:41;;;;;;;;;;;15.90;50.00;;;;;;5046016;28;20318;-71
2023/07/18 09:31:18;;;;;;;;;;;15.90;50.00;;;;;;5044182;28;20272;-71
2023/07/18 09:33:45;;;;;;;;;;;15.90;49.50;;;;;;5045885;28;20453;-71
2023/07/18 09:36:19;;;;;;;;;;;15.90;50.00;;;;;;5045012;28;20363;-71
2023/07/18 09:38:46;;;;;;;;;;;15.80;50.70;;;;;;5044451;28;20300;-70
2023/07/18 09:41:14;;;;;;;;;;;15.80;50.80;;;;;;5042852;28;19913;-71
2023/07/18 09:43:41;;;;;;;;;;;15.70;50.60;;;;;;5064637;28;20000;-69
2023/07/18 09:46:08;;;;;;;;;;;15.70;50.30;;;;;;5064077;28;19913;-70
2023/07/18 09:48:34;;;;;;;;;;;15.70;50.20;;;;;;5063486;28;19921;-70
2023/07/18 09:51:01;;;;;;;;;;;15.70;50.00;;;;;;5029803;28;19925;-70
2023/07/18 09:53:28;;;;;;;;;;;15.70;50.00;;;;;;5020964;28;20330;-69
2023/07/18 09:55:55;;;;;;;;;;;15.70;49.90;;;;;;5012957;28;19921;-73
2023/07/18 09:58:21;;;;;;;;;;;15.70;49.90;;;;;;5032422;28;19952;-73
2023/07/18 10:00:48;;;;;;;;;;;15.70;50.00;;;;;;5029695;28;19928;-73
2023/07/18 10:03:15;;;;;;;;;;;15.70;50.40;;;;;;5029969;28;19917;-81
2023/07/18 10:05:42;;;;;;;;;;;15.70;50.40;;;;;;5032739;28;19913;-74
2023/07/18 10:08:09;;;;;;;;;;;15.70;51.40;;;;;;5030748;28;20004;-75
2023/07/18 10:10:36;;;;;;;;;;;15.70;51.30;;;;;;5031802;28;20015;-75
2023/07/18 10:13:02;;;;;;;;;;;15.60;51.30;;;;;;5031084;28;20383;-74
2023/07/18 10:15:30;;;;;;;;;;;15.60;51.60;;;;;;5032187;28;19913;-74
2023/07/18 10:18:15;;;;;;;;;;;15.60;52.00;;;;;;5032206;28;19910;-74
2023/07/18 10:20:41;;;;;;;;;;;15.50;52.30;;;;;;5030989;28;19998;-76
2023/07/18 10:23:08;;;;;;;;;;;15.60;52.20;;;;;;5030689;28;19971;-75
2023/07/18 10:25:35;;;;;;;;;;;15.50;52.00;;;;;;5030599;28;19917;-74
2023/07/18 10:28:02;;;;;;;;;;;15.50;51.80;;;;;;5030761;28;19917;-75
2023/07/18 10:30:42;;;;;;;;;;;15.50;52.10;;;;;;5030147;28;20421;-73
2023/07/18 10:33:08;;;;;;;;;;;15.50;52.90;;;;;;5030500;28;19921;-74
2023/07/18 10:35:38;;;;;;;;;;;15.40;53.50;;;;;;5031744;28;20346;-75
2023/07/18 10:38:06;;;;;;;;;;;15.30;53.70;;;;;;5030539;28;19963;-74
2023/07/18 10:40:37;;;;;;;;;;;15.30;53.60;;;;;;5030009;28;20363;-73
2023/07/18 10:43:07;;;;;;;;;;;15.20;53.60;;;;;;5030637;28;19913;-74
2023/07/18 10:45:41;;;;;;;;;;;15.30;53.90;;;;;;5031216;28;20322;-77
2023/07/18 10:48:15;;;;;;;;;;;15.30;53.60;;;;;;5031519;28;19909;-73
2023/07/18 10:50:42;;;;;;;;;;;15.20;54.00;;;;;;5028178;28;19933;-76
2023/07/18 10:53:12;;;;;;;;;;;15.20;53.80;;;;;;5029641;28;19924;-77
2023/07/18 10:55:39;;;;;;;;;;;15.20;53.80;;;;;;5031316;28;20272;-77
2023/07/18 10:58:10;;;;;;;;;;;15.30;53.80;;;;;;5029862;28;19923;-74
2023/07/18 11:00:37;;;;;;;;;;;15.20;53.90;;;;;;5062321;28;19913;-76
2023/07/18 11:03:04;;;;;;;;;;;15.20;53.90;;;;;;5031109;28;19913;-75
2023/07/18 11:05:31;;;;;;;;;;;15.10;54.70;;;;;;5062467;28;19913;-75
2023/07/18 11:07:57;;;;;;;;;;;15.10;55.00;;;;;;5031234;28;19916;-73
2023/07/18 11:10:24;;;;;;;;;;;15.00;54.70;;;;;;5030655;28;20310;-73
2023/07/18 11:12:52;;;;;;;;;;;15.00;54.60;;;;;;5030489;28;19932;-74
2023/07/18 11:15:21;;;;;;;;;;;15.00;54.50;;;;;;5029641;28;19913;-74
2023/07/18 11:17:47;;;;;;;;;;;15.00;54.70;;;;;;5030312;28;19931;-74
2023/07/18 11:20:14;;;;;;;;;;;15.00;54.60;;;;;;5030472;28;19966;-76
2023/07/18 11:22:41;;;;;;;;;;;15.00;55.00;;;;;;5029666;28;19916;-73
2023/07/18 11:25:08;;;;;;;;;;;15.00;55.10;;;;;;5030563;28;20334;-73
2023/07/18 11:27:34;;;;;;;;;;;14.90;55.70;;;;;;5030677;28;20000;-74
2023/07/18 11:30:03;;;;;;;;;;;14.90;55.90;;;;;;5036148;28;19925;-73
2023/07/18 11:32:45;;;;;;;;;;;14.90;56.10;;;;;;5050696;28;19917;-76
2023/07/18 11:35:18;;;;;;;;;;;14.80;56.00;;;;;;5049492;28;19924;-78
2023/07/18 11:37:46;;;;;;;;;;;14.70;58.00;;;;;;5050289;28;19975;-78
2023/07/18 11:40:25;;;;;;;;;;;14.70;58.20;;;;;;5049773;28;19917;-76
2023/07/18 11:43:00;;;;;;;;;;;14.70;58.20;;;;;;5032982;28;20027;-77
2023/07/18 11:45:27;;;;;;;;;;;14.70;58.00;;;;;;5048533;28;20019;-74
2023/07/18 11:47:55;;;;;;;;;;;14.70;57.40;;;;;;5064647;28;19917;-73
2023/07/18 11:50:25;;;;;;;;;;;14.70;56.70;;;;;;5047828;28;20398;-77
2023/07/18 11:52:52;;;;;;;;;;;14.70;55.60;;;;;;5050462;28;19912;-75
2023/07/18 11:55:19;;;;;;;;;;;14.80;55.20;;;;;;5049501;28;19913;-77
2023/07/18 11:57:46;;;;;;;;;;;14.70;56.00;;;;;;5065134;28;19947;-75
2023/07/18 12:00:13;;;;;;;;;;;14.70;55.40;;;;;;5050211;28;19917;-75
2023/07/18 12:02:39;;;;;;;;;;;14.70;55.00;;;;;;5032531;28;19939;-76
2023/07/18 12:05:06;;;;;;;;;;;14.80;55.30;;;;;;5031174;28;19909;-78
2023/07/18 12:07:34;;;;;;;;;;;14.80;55.10;;;;;;5031224;28;19943;-74
2023/07/18 12:10:01;;;;;;;;;;;14.80;54.20;;;;;;5049480;28;20003;-75
2023/07/18 12:12:27;;;;;;;;;;;14.80;53.80;;;;;;5047737;28;20321;-78
2023/07/18 12:14:54;;;;;;;;;;;14.80;53.80;;;;;;5049436;28;19912;-78
2023/07/18 12:17:21;;;;;;;;;;;14.80;53.10;;;;;;5049721;28;19916;-81
2023/07/18 12:19:48;;;;;;;;;;;14.80;52.70;;;;;;5048749;28;20414;-75
2023/07/18 12:22:16;;;;;;;;;;;14.80;52.80;;;;;;5049225;28;19920;-76
2023/07/18 12:24:43;;;;;;;;;;;14.80;52.80;;;;;;5049685;28;20432;-74
2023/07/18 12:27:12;;;;;;;;;;;14.80;52.70;;;;;;5049754;28;19909;-77
2023/07/18 12:29:39;;;;;;;;;;;14.80;52.50;;;;;;5047377;28;20181;-74
2023/07/18 12:32:06;;;;;;;;;;;14.80;52.80;;;;;;5043664;28;19913;-76
2023/07/18 12:34:32;;;;;;;;;;;14.80;52.40;;;;;;5029438;28;19943;-75
2023/07/18 12:36:59;;;;;;;;;;;14.80;52.60;;;;;;5041246;28;19942;-75
2023/07/18 12:39:26;;;;;;;;;;;14.80;52.70;;;;;;5029659;28;19913;-74
2023/07/18 12:41:53;;;;;;;;;;;14.80;52.70;;;;;;5044641;28;19928;-76
2023/07/18 12:44:20;;;;;;;;;;;14.80;53.00;;;;;;5049581;28;19909;-72
2023/07/18 12:46:47;;;;;;;;;;;14.80;53.10;;;;;;5048109;28;19920;-71
2023/07/18 12:49:14;;;;;;;;;;;14.80;53.30;;;;;;5049441;28;19920;-72
2023/07/18 12:51:41;;;;;;;;;;;14.70;53.50;;;;;;5050855;28;19928;-71
2023/07/18 12:54:11;;;;;;;;;;;14.70;53.60;;;;;;5051922;28;20375;-72
2023/07/18 12:56:38;;;;;;;;;;;14.70;54.00;;;;;;5052173;28;19909;-72
2023/07/18 12:59:05;;;;;;;;;;;14.60;54.20;;;;;;5052014;28;19913;-72
2023/07/18 13:01:32;;;;;;;;;;;14.60;54.40;;;;;;5052027;28;20389;-71
2023/07/18 13:03:59;;;;;;;;;;;14.50;55.00;;;;;;5050653;28;19913;-71
2023/07/18 13:06:26;;;;;;;;;;;14.50;55.20;;;;;;5051945;28;19923;-68
2023/07/18 13:08:53;;;;;;;;;;;14.50;55.30;;;;;;5051650;28;19938;-69
2023/07/18 13:11:19;;;;;;;;;;;14.40;56.00;;;;;;5051416;28;19988;-68
2023/07/18 13:13:46;;;;;;;;;;;14.50;55.50;;;;;;5051170;28;19913;-69
2023/07/18 13:16:13;;;;;;;;;;;14.40;55.90;;;;;;5051812;28;19913;-71
2023/07/18 13:18:40;;;;;;;;;;;14.40;56.00;;;;;;5059299;28;19942;-71
2023/07/18 13:21:06;;;;;;;;;;;14.30;56.20;;;;;;5075575;28;19912;-71
2023/07/18 13:23:33;;;;;;;;;;;14.20;56.60;;;;;;5075673;28;19916;-71
2023/07/18 13:26:00;;;;;;;;;;;14.20;57.30;;;;;;5060708;28;19919;-71
2023/07/18 13:28:27;;;;;;;;;;;14.20;57.50;;;;;;5055483;28;19919;-71
2023/07/18 13:30:53;;;;;;;;;;;14.10;57.70;;;;;;5055008;28;19928;-71
2023/07/18 13:33:20;;;;;;;;;;;14.00;58.20;;;;;;5055186;28;19924;-71
2023/07/18 13:35:47;;;;;;;;;;;14.00;58.50;;;;;;5054707;28;19913;-71
2023/07/18 13:38:14;;;;;;;;;;;14.00;59.10;;;;;;5055346;28;19999;-70
2023/07/18 13:40:41;;;;;;;;;;;13.90;59.60;;;;;;5055070;28;20359;-71
2023/07/18 13:43:07;;;;;;;;;;;13.90;59.60;;;;;;5055283;28;19943;-71
2023/07/18 13:45:34;;;;;;;;;;;13.80;59.60;;;;;;5054412;28;19948;-70
2023/07/18 13:48:03;;;;;;;;;;;13.70;60.10;;;;;;5054482;28;19956;-71
2023/07/18 13:50:29;;;;;;;;;;;13.70;60.50;;;;;;5054985;28;19944;-71
2023/07/18 13:52:56;;;;;;;;;;;13.70;61.20;;;;;;5035180;28;19967;-71
2023/07/18 13:55:23;;;;;;;;;;;13.70;61.50;;;;;;5035306;28;20364;-71
2023/07/18 13:57:50;;;;;;;;;;;13.70;61.70;;;;;;5036647;28;19917;-70
2023/07/18 14:00:17;;;;;;;;;;;13.60;62.40;;;;;;5051274;28;20386;-71
2023/07/18 14:02:43;;;;;;;;;;;13.50;63.40;;;;;;5050943;28;19992;-71
2023/07/18 14:05:10;;;;;;;;;;;13.50;63.40;;;;;;5054760;28;20275;-71
2023/07/18 14:07:37;;;;;;;;;;;13.50;63.40;;;;;;5054685;28;19916;-71
2023/07/18 14:10:04;;;;;;;;;;;13.60;63.50;;;;;;5054297;28;19927;-71
2023/07/18 14:12:30;;;;;;;;;;;13.70;63.70;;;;;;5054908;28;20271;-71
2023/07/18 14:14:58;;;;;;;;;;;13.70;64.00;;;;;;5054580;28;19909;-71
2023/07/18 14:17:25;;;;;;;;;;;13.70;63.90;;;;;;5053391;28;19913;-71
2023/07/18 14:19:52;;;;;;;;;;;13.80;63.90;;;;;;5053768;28;20004;-71
2023/07/18 14:22:19;;;;;;;;;;;13.80;64.70;;;;;;5053602;28;19971;-71
2023/07/18 14:24:47;;;;;;;;;;;13.70;65.40;;;;;;5054499;28;20433;-71
2023/07/18 14:27:14;;;;;;;;;;;13.70;65.10;;;;;;5054516;28;19909;-71
2023/07/18 14:29:41;;;;;;;;;;;13.70;65.40;;;;;;5053709;28;19912;-71
2023/07/18 14:32:10;;;;;;;;;;;13.60;65.70;;;;;;5053306;28;19913;-71
2023/07/18 14:34:37;;;;;;;;;;;13.50;65.70;;;;;;5052993;28;19912;-71
2023/07/18 14:37:04;;;;;;;;;;;13.50;65.70;;;;;;5052477;28;19916;-71
2023/07/18 14:39:31;;;;;;;;;;;13.50;65.70;;;;;;5034524;28;20334;-71
2023/07/18 14:41:58;;;;;;;;;;;13.40;66.90;;;;;;5052175;28;19912;-71
2023/07/18 14:44:25;;;;;;;;;;;13.30;67.50;;;;;;5051844;28;19913;-71
2023/07/18 14:46:52;;;;;;;;;;;13.20;68.40;;;;;;5052162;28;19912;-71
2023/07/18 14:49:18;;;;;;;;;;;13.20;68.10;;;;;;5053252;28;20279;-71
2023/07/18 14:51:45;;;;;;;;;;;13.20;67.90;;;;;;5052846;28;19921;-71
2023/07/18 14:54:12;;;;;;;;;;;13.10;67.80;;;;;;5052410;28;20051;-71
2023/07/18 14:56:39;;;;;;;;;;;13.20;67.50;;;;;;5051095;28;20558;-71
2023/07/18 14:59:05;;;;;;;;;;;13.20;67.70;;;;;;5051808;28;20378;-71
2023/07/18 15:01:32;;;;;;;;;;;13.30;67.50;;;;;;5051461;28;19916;-71
2023/07/18 15:03:59;;;;;;;;;;;13.30;67.80;;;;;;5034269;28;19924;-70
2023/07/18 15:06:26;;;;;;;;;;;13.30;67.50;;;;;;5051946;28;19990;-71
2023/07/18 15:08:54;;;;;;;;;;;13.30;66.90;;;;;;5032969;28;20370;-70
2023/07/18 15:11:20;;;;;;;;;;;13.30;67.00;;;;;;5053355;28;19921;-71
2023/07/18 15:13:47;;;;;;;;;;;13.20;67.20;;;;;;5053757;28;19913;-70
2023/07/18 15:16:14;;;;;;;;;;;13.20;67.00;;;;;;5053532;28;19913;-71
2023/07/18 15:18:40;;;;;;;;;;;13.20;67.00;;;;;;5052475;28;20283;-71
2023/07/18 15:21:08;;;;;;;;;;;13.20;67.10;;;;;;5053290;28;19963;-70
2023/07/18 15:23:36;;;;;;;;;;;13.20;66.80;;;;;;5053475;28;19955;-71
2023/07/18 15:26:02;;;;;;;;;;;13.20;66.50;;;;;;5052585;28;19939;-70
2023/07/18 15:28:30;;;;;;;;;;;13.20;65.70;;;;;;5053512;28;19963;-70
2023/07/18 15:30:57;;;;;;;;;;;13.10;65.00;;;;;;5051571;28;20286;-70
2023/07/18 15:33:23;;;;;;;;;;;13.20;64.30;;;;;;5035405;28;19913;-70
2023/07/18 15:35:50;;;;;;;;;;;13.20;63.80;;;;;;5035443;28;19909;-71
2023/07/18 15:38:17;;;;;;;;;;;13.20;63.60;;;;;;5035247;28;20367;-70
2023/07/18 15:40:43;;;;;;;;;;;13.20;62.20;;;;;;5052395;28;19948;-70
2023/07/18 15:43:10;;;;;;;;;;;13.20;62.10;;;;;;5033949;28;19913;-70
2023/07/18 15:45:37;;;;;;;;;;;13.20;61.80;;;;;;5034971;28;19913;-71
2023/07/18 15:48:04;;;;;;;;;;;13.20;61.80;;;;;;5052401;28;19916;-71
2023/07/18 15:50:30;;;;;;;;;;;13.30;61.50;;;;;;5052833;28;19973;-70
2023/07/18 15:52:57;;;;;;;;;;;13.20;61.00;;;;;;5034267;28;19960;-70
2023/07/18 15:55:24;;;;;;;;;;;13.20;61.00;;;;;;5034610;28;19912;-70
2023/07/18 15:57:51;;;;;;;;;;;13.30;61.00;;;;;;5068419;28;20367;-71
2023/07/18 16:00:17;;;;;;;;;;;13.20;61.20;;;;;;5035271;28;20282;-70
2023/07/18 16:02:44;;;;;;;;;;;13.20;61.00;;;;;;5052895;28;19936;-70
2023/07/18 16:05:11;;;;;;;;;;;13.20;61.10;;;;;;5052957;28;19955;-70
2023/07/18 16:07:38;;;;;;;;;;;13.20;60.80;;;;;;5052181;28;19982;-70
2023/07/18 16:10:05;;;;;;;;;;;13.20;61.00;;;;;;5052496;28;19921;-70
2023/07/18 17:45:32;;;;;;;;;;;12.20;56.70;;;;;;5091487;28;19930;-70
2023/07/18 17:47:59;;;;;;;;;;;12.10;56.20;;;;;;5094327;28;19912;-70
2023/07/18 17:50:26;;;;;;;;;;;12.10;56.20;;;;;;5094627;28;19920;-70
2023/07/18 17:52:52;;;;;;;;;;;12.10;56.40;;;;;;5095109;28;20343;-70
2023/07/18 17:55:20;;;;;;;;;;;12.00;56.40;;;;;;5094101;28;20042;-70
2023/07/18 17:57:46;;;;;;;;;;;12.00;56.00;;;;;;5094166;28;19919;-70
2023/07/18 18:00:13;;;;;;;;;;;11.90;56.20;;;;;;5092917;28;19962;-70
2023/07/18 18:02:40;;;;;;;;;;;12.00;56.30;;;;;;5094663;28;20011;-70
2023/07/18 18:05:25;;;;;;;;;;;11.90;56.10;;;;;;5095099;28;19908;-70
2023/07/18 18:07:52;;;;;;;;;;;11.90;56.20;;;;;;5094054;28;19908;-70
2023/07/18 18:10:19;;;;;;;;;;;11.90;56.10;;;;;;5094324;28;19923;-70
2023/07/18 18:12:46;;;;;;;;;;;11.80;55.80;;;;;;5093821;28;19912;-70
2023/07/18 18:15:12;;;;;;;;;;;11.80;55.60;;;;;;5095024;28;19920;-70
2023/07/18 18:17:39;;;;;;;;;;;11.90;55.80;;;;;;5095210;28;19943;-70
2023/07/18 18:20:06;;;;;;;;;;;11.80;55.80;;;;;;5094866;28;20046;-70
2023/07/18 18:22:33;;;;;;;;;;;11.70;55.70;;;;;;5093735;28;20294;-70
2023/07/18 18:25:00;;;;;;;;;;;11.70;55.70;;;;;;5095067;28;19908;-70
2023/07/18 18:27:28;;;;;;;;;;;11.70;55.60;;;;;;5093803;28;19914;-70
2023/07/18 18:29:54;;;;;;;;;;;11.70;55.90;;;;;;5094626;28;20424;-70
2023/07/18 18:32:21;;;;;;;;;;;11.70;55.80;;;;;;5091374;28;19947;-70
2023/07/18 18:34:48;;;;;;;;;;;11.70;55.90;;;;;;5094664;28;19931;-71
2023/07/18 18:37:15;;;;;;;;;;;11.70;55.70;;;;;;5094314;28;19916;-70
2023/07/18 18:39:41;;;;;;;;;;;11.70;56.10;;;;;;5093554;28;19938;-70
2023/07/18 18:42:08;;;;;;;;;;;11.70;55.90;;;;;;5093114;28;19934;-70
2023/07/18 18:44:35;;;;;;;;;;;11.60;55.90;;;;;;5093195;28;19920;-70
2023/07/18 18:47:01;;;;;;;;;;;11.60;56.00;;;;;;5094074;28;19912;-70
2023/07/18 18:49:29;;;;;;;;;;;11.50;56.30;;;;;;5089858;28;19916;-70
2023/07/18 18:51:56;;;;;;;;;;;11.50;56.20;;;;;;5093257;28;20370;-70
2023/07/18 18:54:23;;;;;;;;;;;11.50;56.20;;;;;;5091304;28;20297;-70
2023/07/18 18:56:52;;;;;;;;;;;11.50;56.30;;;;;;5085197;28;19943;-70
2023/07/18 18:59:19;;;;;;;;;;;11.50;56.40;;;;;;5087869;28;19942;-70
2023/07/18 19:01:46;;;;;;;;;;;11.50;56.30;;;;;;5093241;28;19916;-70
2023/07/18 19:04:12;;;;;;;;;;;11.50;56.40;;;;;;5094230;28;19919;-70
2023/07/18 19:06:39;;;;;;;;;;;11.40;56.70;;;;;;5093540;28;19912;-70
2023/07/18 19:09:06;;;;;;;;;;;11.40;56.60;;;;;;5092820;28;20388;-70
2023/07/18 19:11:33;;;;;;;;;;;11.40;56.60;;;;;;5092048;28;19924;-70
2023/07/18 19:58:31;;;;;;;;;;;11.10;58.30;;;;;;5089505;28;19974;-68
2023/07/18 20:00:58;;;;;;;;;;;11.20;58.40;;;;;;5069979;28;19924;-68
2023/07/18 20:03:24;;;;;;;;;;;11.10;58.90;;;;;;5072693;28;19916;-69
2023/07/18 20:05:51;;;;;;;;;;;11.10;59.20;;;;;;5072242;28;19915;-69